UAL1775 KTPA-KDEN
Flight info
| Callsign | UAL1775 |
|---|---|
| Flight time | N/A |
| Altitude | 30000 |
| Route | ENDED2 LACEN PATOY Q116 JAWJA CABLO KWANE KF33E/N0474F320 TOTOE HALEN NIIXX4 |
| Aircraft | A21N/M-SDE2E3FGHIRWXY/LB1 |
Departure
| Time | 2026-05-05 21:16 |
|---|---|
| Airport | Tampa International Airport (KTPA) |
Arrival
| Time | N/A |
|---|---|
| Airport | Denver International Airport (KDEN) |
| Time | Latitude | Longitude | Altitude | Speed | Heading |
|---|---|---|---|---|---|
| 2026-05-05 20:46 | 27.97611 | -82.53158 | 48 ft | 0 kts | 271° |
| 2026-05-05 21:07 | 27.97611 | -82.53156 | 48 ft | 2 kts | 271° |
| 2026-05-05 21:07 | 27.97612 | -82.53127 | 48 ft | 4 kts | 268° |
| 2026-05-05 21:07 | 27.97610 | -82.53098 | 48 ft | 4 kts | 287° |
| 2026-05-05 21:07 | 27.97598 | -82.53074 | 48 ft | 4 kts | 328° |
| 2026-05-05 21:08 | 27.97579 | -82.53068 | 48 ft | 1 kts | 1° |
| 2026-05-05 21:08 | 27.97575 | -82.53068 | 48 ft | 0 kts | 1° |
| 2026-05-05 21:12 | 27.97611 | -82.53067 | 48 ft | 11 kts | 1° |
| 2026-05-05 21:12 | 27.97695 | -82.53064 | 48 ft | 13 kts | 2° |
| 2026-05-05 21:13 | 27.97786 | -82.53061 | 46 ft | 13 kts | 2° |
| 2026-05-05 21:13 | 27.97883 | -82.53057 | 48 ft | 14 kts | 2° |
| 2026-05-05 21:13 | 27.97987 | -82.53053 | 48 ft | 15 kts | 2° |
| 2026-05-05 21:13 | 27.98095 | -82.53049 | 48 ft | 16 kts | 2° |
| 2026-05-05 21:14 | 27.98208 | -82.53044 | 48 ft | 17 kts | 2° |
| 2026-05-05 21:14 | 27.98319 | -82.53018 | 47 ft | 17 kts | 39° |
| 2026-05-05 21:14 | 27.98425 | -82.52959 | 47 ft | 18 kts | 9° |
| 2026-05-05 21:14 | 27.98549 | -82.52949 | 46 ft | 18 kts | 2° |
| 2026-05-05 21:15 | 27.98676 | -82.52944 | 46 ft | 16 kts | 5° |
| 2026-05-05 21:15 | 27.98707 | -82.52841 | 42 ft | 16 kts | 140° |
| 2026-05-05 21:15 | 27.98595 | -82.52843 | 43 ft | 17 kts | 182° |
| 2026-05-05 21:15 | 27.98461 | -82.52845 | 42 ft | 30 kts | 180° |
| 2026-05-05 21:16 | 27.98004 | -82.52855 | 44 ft | 101 kts | 181° |
| 2026-05-05 21:16 | 27.97095 | -82.52885 | 43 ft | 163 kts | 183° |
| 2026-05-05 21:16 | 27.95929 | -82.52931 | 645 ft | 167 kts | 185° |
| 2026-05-05 21:16 | 27.94791 | -82.53104 | 1352 ft | 172 kts | 208° |
| 2026-05-05 21:17 | 27.93979 | -82.54134 | 1836 ft | 187 kts | 250° |
| 2026-05-05 21:17 | 27.93924 | -82.55631 | 2257 ft | 202 kts | 287° |
| 2026-05-05 21:17 | 27.94780 | -82.56934 | 2594 ft | 218 kts | 322° |
| 2026-05-05 21:17 | 27.96221 | -82.57660 | 2936 ft | 239 kts | 339° |
| 2026-05-05 21:18 | 27.97852 | -82.58345 | 3254 ft | 260 kts | 338° |
| 2026-05-05 21:18 | 27.99589 | -82.59115 | 3768 ft | 274 kts | 338° |
| 2026-05-05 21:18 | 28.01363 | -82.59920 | 4496 ft | 277 kts | 338° |
| 2026-05-05 21:18 | 28.03153 | -82.60741 | 5312 ft | 277 kts | 338° |
| 2026-05-05 21:19 | 28.04927 | -82.61558 | 6092 ft | 277 kts | 338° |
| 2026-05-05 21:19 | 28.06727 | -82.62393 | 6827 ft | 280 kts | 338° |
| 2026-05-05 21:19 | 28.08555 | -82.63244 | 7478 ft | 285 kts | 337° |
| 2026-05-05 21:19 | 28.10401 | -82.64106 | 8138 ft | 289 kts | 336° |
| 2026-05-05 21:20 | 28.12256 | -82.64973 | 8813 ft | 291 kts | 336° |
| 2026-05-05 21:20 | 28.14114 | -82.65843 | 9497 ft | 292 kts | 336° |
| 2026-05-05 21:20 | 28.15994 | -82.66722 | 10191 ft | 293 kts | 335° |
| 2026-05-05 21:20 | 28.17919 | -82.67624 | 10532 ft | 307 kts | 335° |
| 2026-05-05 21:21 | 28.19947 | -82.68578 | 10783 ft | 323 kts | 335° |
| 2026-05-05 21:21 | 28.22071 | -82.69575 | 11015 ft | 339 kts | 335° |
| 2026-05-05 21:21 | 28.24313 | -82.70627 | 11231 ft | 355 kts | 335° |
| 2026-05-05 21:21 | 28.26642 | -82.71721 | 11441 ft | 370 kts | 335° |
| 2026-05-05 21:22 | 28.29076 | -82.72867 | 11639 ft | 384 kts | 335° |
| 2026-05-05 21:22 | 28.31583 | -82.74043 | 11869 ft | 394 kts | 335° |
| 2026-05-05 21:22 | 28.34124 | -82.75237 | 12289 ft | 397 kts | 335° |
| 2026-05-05 21:22 | 28.36688 | -82.76441 | 12754 ft | 399 kts | 335° |
| 2026-05-05 21:23 | 28.39258 | -82.77649 | 13257 ft | 401 kts | 335° |
| 2026-05-05 21:23 | 28.41940 | -82.78608 | 13758 ft | 406 kts | 346° |
| 2026-05-05 21:23 | 28.44734 | -82.79120 | 14224 ft | 409 kts | 349° |
| 2026-05-05 21:23 | 28.47559 | -82.79561 | 14680 ft | 411 kts | 349° |
| 2026-05-05 21:24 | 28.50410 | -82.80007 | 15191 ft | 414 kts | 349° |
| 2026-05-05 21:24 | 28.53274 | -82.80465 | 15716 ft | 416 kts | 349° |
| 2026-05-05 21:24 | 28.56151 | -82.80935 | 16198 ft | 419 kts | 349° |
| 2026-05-05 21:24 | 28.59007 | -82.81406 | 16656 ft | 421 kts | 349° |
| 2026-05-05 21:25 | 28.61901 | -82.81925 | 17120 ft | 422 kts | 348° |
| 2026-05-05 21:25 | 28.64814 | -82.82461 | 17564 ft | 425 kts | 348° |
| 2026-05-05 21:25 | 28.67748 | -82.82998 | 18008 ft | 427 kts | 348° |
| 2026-05-05 21:25 | 28.70687 | -82.83529 | 18440 ft | 429 kts | 348° |
| 2026-05-05 21:26 | 28.73648 | -82.84064 | 18848 ft | 431 kts | 348° |
| 2026-05-05 21:26 | 28.75607 | -82.84417 | 19101 ft | 432 kts | 348° |
| 2026-05-05 21:26 | 28.78592 | -82.84957 | 19475 ft | 435 kts | 348° |
| 2026-05-05 21:26 | 28.81584 | -82.85498 | 19866 ft | 437 kts | 348° |
| 2026-05-05 21:27 | 28.84596 | -82.86044 | 20253 ft | 439 kts | 347° |
| 2026-05-05 21:27 | 28.87632 | -82.86597 | 20618 ft | 441 kts | 347° |
| 2026-05-05 21:27 | 28.90673 | -82.87151 | 20993 ft | 444 kts | 347° |
| 2026-05-05 21:27 | 28.93735 | -82.87710 | 21431 ft | 446 kts | 347° |
| 2026-05-05 21:28 | 28.96808 | -82.88267 | 21875 ft | 449 kts | 347° |
| 2026-05-05 21:28 | 28.99892 | -82.88826 | 22270 ft | 450 kts | 347° |
| 2026-05-05 21:28 | 29.02993 | -82.89401 | 22637 ft | 452 kts | 345° |
| 2026-05-05 21:28 | 29.05981 | -82.90332 | 22948 ft | 449 kts | 335° |
| 2026-05-05 21:29 | 29.08759 | -82.91893 | 23264 ft | 446 kts | 325° |
| 2026-05-05 21:29 | 29.11309 | -82.93899 | 23591 ft | 445 kts | 321° |
| 2026-05-05 21:29 | 29.13820 | -82.95976 | 23991 ft | 444 kts | 321° |
| 2026-05-05 21:29 | 29.16315 | -82.98041 | 24385 ft | 443 kts | 321° |
| 2026-05-05 21:30 | 29.18815 | -83.00098 | 24786 ft | 441 kts | 321° |
| 2026-05-05 21:30 | 29.21312 | -83.02146 | 25183 ft | 439 kts | 321° |
| 2026-05-05 21:30 | 29.23793 | -83.04176 | 25620 ft | 437 kts | 321° |
| 2026-05-05 21:30 | 29.26268 | -83.06201 | 26047 ft | 434 kts | 321° |
| 2026-05-05 21:31 | 29.28716 | -83.08208 | 26456 ft | 432 kts | 321° |
| 2026-05-05 21:31 | 29.31159 | -83.10208 | 26882 ft | 430 kts | 321° |
| 2026-05-05 21:31 | 29.33552 | -83.12169 | 27278 ft | 428 kts | 321° |
| 2026-05-05 21:31 | 29.35999 | -83.14178 | 27693 ft | 426 kts | 321° |
| 2026-05-05 21:32 | 29.38376 | -83.16132 | 28074 ft | 424 kts | 321° |
| 2026-05-05 21:32 | 29.40804 | -83.18126 | 28454 ft | 422 kts | 321° |
| 2026-05-05 21:32 | 29.43154 | -83.20056 | 28839 ft | 419 kts | 321° |
| 2026-05-05 21:32 | 29.45496 | -83.21983 | 29231 ft | 417 kts | 321° |
| 2026-05-05 21:33 | 29.47868 | -83.23936 | 29584 ft | 415 kts | 321° |
| 2026-05-05 21:33 | 29.50207 | -83.25864 | 29942 ft | 412 kts | 321° |
| 2026-05-05 21:33 | 29.52528 | -83.27778 | 30067 ft | 414 kts | 321° |
| 2026-05-05 21:33 | 29.54866 | -83.29706 | 30057 ft | 412 kts | 321° |
| 2026-05-05 21:34 | 29.59522 | -83.33549 | 30006 ft | 412 kts | 321° |
| 2026-05-05 21:34 | 29.64151 | -83.37375 | 30001 ft | 411 kts | 321° |
| 2026-05-05 21:35 | 29.68801 | -83.41220 | 30045 ft | 411 kts | 321° |
| 2026-05-05 21:35 | 29.73471 | -83.45093 | 30059 ft | 410 kts | 321° |
| 2026-05-05 21:36 | 29.78062 | -83.48926 | 30061 ft | 410 kts | 321° |
| 2026-05-05 21:36 | 29.82699 | -83.52749 | 30040 ft | 409 kts | 321° |
| 2026-05-05 21:37 | 29.87302 | -83.56568 | 30049 ft | 409 kts | 321° |
| 2026-05-05 21:37 | 29.91931 | -83.60418 | 30041 ft | 409 kts | 321° |
| 2026-05-05 21:38 | 29.96531 | -83.64246 | 30065 ft | 408 kts | 321° |
| 2026-05-05 21:38 | 30.01132 | -83.68081 | 30059 ft | 408 kts | 321° |
| 2026-05-05 21:39 | 30.05712 | -83.71902 | 30058 ft | 408 kts | 321° |
| 2026-05-05 21:39 | 30.10311 | -83.75743 | 30061 ft | 408 kts | 321° |
| 2026-05-05 21:40 | 30.14897 | -83.79579 | 30044 ft | 408 kts | 321° |
| 2026-05-05 21:40 | 30.18897 | -83.84166 | 30006 ft | 404 kts | 306° |
| 2026-05-05 21:41 | 30.22059 | -83.89498 | 30053 ft | 404 kts | 304° |
| 2026-05-05 21:41 | 30.25210 | -83.94849 | 30071 ft | 404 kts | 304° |
| 2026-05-05 21:42 | 30.28407 | -84.00255 | 30034 ft | 404 kts | 304° |
| 2026-05-05 21:42 | 30.31569 | -84.05596 | 30024 ft | 404 kts | 304° |
| 2026-05-05 21:43 | 30.34745 | -84.10972 | 30059 ft | 403 kts | 304° |
| 2026-05-05 21:43 | 30.37907 | -84.16349 | 30022 ft | 404 kts | 304° |
| 2026-05-05 21:44 | 30.41094 | -84.21744 | 30020 ft | 404 kts | 304° |
| 2026-05-05 21:44 | 30.44251 | -84.27136 | 30039 ft | 404 kts | 304° |
| 2026-05-05 21:45 | 30.47422 | -84.32515 | 30044 ft | 404 kts | 304° |
| 2026-05-05 21:45 | 30.50562 | -84.37862 | 30040 ft | 404 kts | 304° |
| 2026-05-05 21:46 | 30.53730 | -84.43267 | 30048 ft | 404 kts | 304° |
| 2026-05-05 21:46 | 30.56887 | -84.48669 | 30053 ft | 405 kts | 304° |
| 2026-05-05 21:47 | 30.60053 | -84.54092 | 30059 ft | 405 kts | 304° |
| 2026-05-05 21:47 | 30.63224 | -84.59516 | 30058 ft | 405 kts | 304° |
| 2026-05-05 21:48 | 30.66392 | -84.64947 | 30057 ft | 405 kts | 304° |
| 2026-05-05 21:48 | 30.69541 | -84.70375 | 30056 ft | 405 kts | 304° |
| 2026-05-05 21:49 | 30.72681 | -84.75772 | 30048 ft | 405 kts | 304° |
| 2026-05-05 21:49 | 30.75826 | -84.81212 | 30044 ft | 405 kts | 304° |
| 2026-05-05 21:50 | 30.78753 | -84.86808 | 30044 ft | 405 kts | 299° |
| 2026-05-05 21:50 | 30.81411 | -84.92604 | 30032 ft | 405 kts | 299° |
| 2026-05-05 21:51 | 30.84064 | -84.98392 | 30027 ft | 406 kts | 299° |
| 2026-05-05 21:51 | 30.86714 | -85.04174 | 30037 ft | 406 kts | 299° |
| 2026-05-05 21:52 | 30.90681 | -85.12828 | 30023 ft | 404 kts | 299° |
| 2026-05-05 21:53 | 30.93329 | -85.18603 | 30020 ft | 404 kts | 299° |
| 2026-05-05 21:53 | 30.95996 | -85.24372 | 30008 ft | 404 kts | 299° |
| 2026-05-05 21:54 | 30.98639 | -85.30145 | 30010 ft | 405 kts | 299° |
| 2026-05-05 21:54 | 31.01284 | -85.35952 | 30018 ft | 405 kts | 299° |
| 2026-05-05 21:55 | 31.03929 | -85.41759 | 30027 ft | 405 kts | 299° |
| 2026-05-05 21:55 | 31.06557 | -85.47556 | 29996 ft | 404 kts | 299° |
| 2026-05-05 21:56 | 31.09184 | -85.53338 | 30034 ft | 404 kts | 299° |
| 2026-05-05 21:56 | 31.11800 | -85.59110 | 30037 ft | 405 kts | 299° |
| 2026-05-05 21:57 | 31.14437 | -85.64951 | 30009 ft | 405 kts | 299° |
| 2026-05-05 21:57 | 31.17041 | -85.70715 | 30025 ft | 404 kts | 299° |
| 2026-05-05 21:58 | 31.19663 | -85.76539 | 29986 ft | 403 kts | 299° |
| 2026-05-05 21:58 | 31.22284 | -85.82352 | 30003 ft | 404 kts | 299° |
| 2026-05-05 21:59 | 31.24873 | -85.88160 | 30002 ft | 404 kts | 299° |
| 2026-05-05 21:59 | 31.27465 | -85.93949 | 30003 ft | 404 kts | 299° |
| 2026-05-05 22:00 | 31.30071 | -85.99762 | 30026 ft | 403 kts | 299° |
| 2026-05-05 22:00 | 31.32676 | -86.05556 | 30030 ft | 401 kts | 299° |
| 2026-05-05 22:01 | 31.35272 | -86.11328 | 30015 ft | 401 kts | 299° |
| 2026-05-05 22:01 | 31.37856 | -86.17135 | 30002 ft | 401 kts | 299° |
| 2026-05-05 22:02 | 31.40438 | -86.22922 | 30006 ft | 401 kts | 299° |
| 2026-05-05 22:02 | 31.42997 | -86.28705 | 29998 ft | 400 kts | 299° |
| 2026-05-05 22:03 | 31.45564 | -86.34493 | 29974 ft | 400 kts | 299° |
| 2026-05-05 22:03 | 31.48146 | -86.40289 | 29984 ft | 400 kts | 299° |
| 2026-05-05 22:04 | 31.50683 | -86.46048 | 29978 ft | 400 kts | 298° |
| 2026-05-05 22:04 | 31.53236 | -86.51853 | 29977 ft | 400 kts | 299° |
| 2026-05-05 22:05 | 31.55818 | -86.57661 | 29971 ft | 401 kts | 298° |
| 2026-05-05 22:05 | 31.58376 | -86.63451 | 29979 ft | 400 kts | 298° |
| 2026-05-05 22:06 | 31.60930 | -86.69253 | 29971 ft | 400 kts | 298° |
| 2026-05-05 22:06 | 31.63453 | -86.75058 | 29972 ft | 399 kts | 298° |
| 2026-05-05 22:07 | 31.65982 | -86.80814 | 30001 ft | 399 kts | 298° |
| 2026-05-05 22:07 | 31.68553 | -86.86658 | 30033 ft | 398 kts | 298° |
| 2026-05-05 22:08 | 31.71063 | -86.92390 | 29998 ft | 398 kts | 298° |
| 2026-05-05 22:08 | 31.73589 | -86.98178 | 29966 ft | 398 kts | 298° |
| 2026-05-05 22:09 | 31.76105 | -87.03959 | 29959 ft | 397 kts | 298° |
| 2026-05-05 22:09 | 31.78622 | -87.09746 | 29984 ft | 396 kts | 298° |
| 2026-05-05 22:10 | 31.81128 | -87.15508 | 29979 ft | 396 kts | 298° |
| 2026-05-05 22:10 | 31.83633 | -87.21284 | 29995 ft | 396 kts | 298° |
| 2026-05-05 22:11 | 31.86117 | -87.27021 | 29974 ft | 396 kts | 298° |
| 2026-05-05 22:11 | 31.88603 | -87.32773 | 29972 ft | 394 kts | 297° |
| 2026-05-05 22:12 | 31.91093 | -87.38550 | 30025 ft | 394 kts | 297° |
| 2026-05-05 22:12 | 31.93562 | -87.44290 | 29993 ft | 394 kts | 297° |
| 2026-05-05 22:13 | 31.96019 | -87.50000 | 29983 ft | 393 kts | 297° |
| 2026-05-05 22:13 | 31.98488 | -87.55732 | 30018 ft | 392 kts | 297° |
| 2026-05-05 22:14 | 32.00534 | -87.60502 | 29996 ft | 392 kts | 297° |
| 2026-05-05 22:14 | 32.02986 | -87.66235 | 29961 ft | 392 kts | 297° |
| 2026-05-05 22:15 | 32.05442 | -87.71973 | 29948 ft | 390 kts | 297° |
| 2026-05-05 22:15 | 32.07883 | -87.77690 | 29933 ft | 391 kts | 297° |
| 2026-05-05 22:16 | 32.10310 | -87.83395 | 29963 ft | 390 kts | 297° |
| 2026-05-05 22:16 | 32.12742 | -87.89114 | 29979 ft | 390 kts | 297° |
| 2026-05-05 22:17 | 32.15179 | -87.94844 | 29975 ft | 390 kts | 297° |
| 2026-05-05 22:17 | 32.17620 | -88.00595 | 29980 ft | 390 kts | 297° |
| 2026-05-05 22:18 | 32.20049 | -88.06327 | 29978 ft | 390 kts | 297° |
| 2026-05-05 22:18 | 32.22481 | -88.12081 | 29962 ft | 390 kts | 297° |
| 2026-05-05 22:19 | 32.24874 | -88.17747 | 29992 ft | 390 kts | 297° |
| 2026-05-05 22:19 | 32.27305 | -88.23517 | 29999 ft | 391 kts | 297° |
| 2026-05-05 22:20 | 32.29716 | -88.29260 | 29970 ft | 391 kts | 297° |
| 2026-05-05 22:20 | 32.32131 | -88.34997 | 29941 ft | 391 kts | 297° |
| 2026-05-05 22:21 | 32.34551 | -88.40767 | 29942 ft | 391 kts | 297° |
| 2026-05-05 22:21 | 32.36985 | -88.46502 | 29953 ft | 391 kts | 298° |
| 2026-05-05 22:22 | 32.39595 | -88.52165 | 29951 ft | 391 kts | 298° |
| 2026-05-05 22:22 | 32.42186 | -88.57792 | 29973 ft | 391 kts | 298° |
| 2026-05-05 22:23 | 32.44806 | -88.63479 | 29966 ft | 391 kts | 298° |
| 2026-05-05 22:23 | 32.47399 | -88.69125 | 29959 ft | 392 kts | 298° |
| 2026-05-05 22:24 | 32.49992 | -88.74779 | 29958 ft | 392 kts | 298° |
| 2026-05-05 22:24 | 32.52591 | -88.80459 | 29938 ft | 392 kts | 298° |
| 2026-05-05 22:25 | 32.55191 | -88.86142 | 29938 ft | 392 kts | 298° |
| 2026-05-05 22:25 | 32.57787 | -88.91829 | 29932 ft | 392 kts | 298° |
| 2026-05-05 22:26 | 32.60369 | -88.97518 | 29949 ft | 392 kts | 298° |
| 2026-05-05 22:26 | 32.62971 | -89.03226 | 29943 ft | 392 kts | 298° |
| 2026-05-05 22:27 | 32.65542 | -89.08886 | 29953 ft | 392 kts | 297° |
| 2026-05-05 22:27 | 32.68134 | -89.14594 | 29969 ft | 391 kts | 297° |
| 2026-05-05 22:28 | 32.70698 | -89.20263 | 29931 ft | 391 kts | 297° |
| 2026-05-05 22:28 | 32.73259 | -89.25918 | 29964 ft | 391 kts | 297° |
| 2026-05-05 22:29 | 32.75832 | -89.31613 | 29969 ft | 391 kts | 297° |
| 2026-05-05 22:29 | 32.78399 | -89.37309 | 29932 ft | 391 kts | 297° |
| 2026-05-05 22:30 | 32.80966 | -89.43022 | 29945 ft | 390 kts | 297° |
| 2026-05-05 22:30 | 32.83519 | -89.48707 | 29938 ft | 390 kts | 297° |
| 2026-05-05 22:31 | 32.86065 | -89.54368 | 29935 ft | 391 kts | 297° |
| 2026-05-05 22:31 | 32.88638 | -89.60116 | 29903 ft | 390 kts | 297° |
| 2026-05-05 22:32 | 32.91169 | -89.65777 | 29891 ft | 390 kts | 297° |
| 2026-05-05 22:32 | 32.93735 | -89.71528 | 29906 ft | 391 kts | 297° |
| 2026-05-05 22:33 | 32.96261 | -89.77198 | 29944 ft | 389 kts | 297° |
| 2026-05-05 22:33 | 32.98800 | -89.82898 | 29895 ft | 388 kts | 297° |
| 2026-05-05 22:34 | 33.01327 | -89.88582 | 29904 ft | 389 kts | 297° |
| 2026-05-05 22:34 | 33.03857 | -89.94296 | 29885 ft | 389 kts | 297° |
| 2026-05-05 22:35 | 33.06386 | -90.00003 | 29904 ft | 388 kts | 297° |
| 2026-05-05 22:35 | 33.08901 | -90.05689 | 29915 ft | 387 kts | 296° |
| 2026-05-05 22:36 | 33.11392 | -90.11325 | 29916 ft | 385 kts | 296° |
| 2026-05-05 22:36 | 33.13884 | -90.17002 | 29860 ft | 386 kts | 296° |